Beverly, KY (40913)

8:06 AM EST on January 26, 2015 (GMT -0500)
Harlan | Change Station
CLOSE
Current Station
Airport
Location: Harlan,
Elevation: 1552 ft
Nearby Weather Stations
Active Advisory: Special Statement

Elev 1552 ft 36.86 °N, 83.36 °W | Updated 11 minutes ago

Overcast
Overcast
36 °F
Feels Like 29 °F
N
9
Wind Variable Wind from West

Today
High -- | Low -- °F
--% Chance of Precip.
Yesterday
High -- | Low -- °F
Precip. -- in
7:41 AM 5:52 PM
Waxing Crescent, 43% visible
Pressure 29.71 in
Visibility 5.0 miles
Clouds Overcast 600 ft
Windchill 29 °F
Dew Point 36 °F
Humidity 100%
Rainfall 0.00 in
Snow Depth Not available.
UV 0 out of 12
Pollen .10 out of 12
Air Quality Not available.
Flu Activity Not available.
METAR KI35 261255Z AUTO 26008KT 230V290 5SM OVC006 02/02 A2971 RMK AO1

More Conditions Fewer Conditions

Pressure 29.71 in
Visibility 5.0 miles
Clouds Overcast 600 ft
Windchill 29 °F
Dew Point 36 °F
Humidity 100%
Rainfall 0.00 in
Snow Depth Not available.
UV 0 out of 12
Pollen .10 out of 12
Air Quality Not available.
Flu Activity Not available.
METAR KI35 261255Z AUTO 26008KT 230V290 5SM OVC006 02/02 A2971 RMK AO1

More Conditions Fewer Conditions

10-Day Weather Forecast

Almanac

Astronomy

Jan. 26, 2015 Rise Set
Actual Time
Civil Twilight
Nautical Twilight
Astronomical Twilight
Moon
Length of Visible Light
Length of Day
Tomorrow will be .
, % of the Moon is Illuminated

Today's Extremes

State Highs State Lows

Community

WunderPhotos

Upload Photos

1,790,191 photos uploaded!

WunderBlogs® & News

Nearby

Air Quality

  Air Quality AQ Index Pollutant
Not available.

Snow Depth

Station Depth Elevation

Earthquake Activity

City Distance Mag. Time & Date
Minimum magnitude displayed is 2.5.

Coastal Water Temperatures

Place Temperature

Nearby Weather Stations